sensor_id;sensor_type;location;lat;lon;timestamp;P1;durP1;ratioP1;P2;durP2;ratioP2
27491;SDS011;14927;51.210;6.838;2023-04-06T00:01:26;14.00;;;8.77;;
27491;SDS011;14927;51.210;6.838;2023-04-06T00:04:11;21.15;;;11.20;;
27491;SDS011;14927;51.210;6.838;2023-04-06T00:06:56;16.65;;;9.77;;
27491;SDS011;14927;51.210;6.838;2023-04-06T00:09:40;18.25;;;10.35;;
27491;SDS011;14927;51.210;6.838;2023-04-06T00:12:25;18.88;;;9.07;;
27491;SDS011;14927;51.210;6.838;2023-04-06T00:15:10;15.10;;;9.25;;
27491;SDS011;14927;51.210;6.838;2023-04-06T00:17:55;14.75;;;8.43;;
27491;SDS011;14927;51.210;6.838;2023-04-06T00:20:40;15.23;;;9.00;;
27491;SDS011;14927;51.210;6.838;2023-04-06T00:23:25;15.48;;;9.57;;
27491;SDS011;14927;51.210;6.838;2023-04-06T00:26:09;18.08;;;10.05;;
27491;SDS011;14927;51.210;6.838;2023-04-06T00:28:54;13.57;;;8.63;;
27491;SDS011;14927;51.210;6.838;2023-04-06T00:31:39;16.35;;;8.85;;
27491;SDS011;14927;51.210;6.838;2023-04-06T00:34:23;15.60;;;8.77;;
27491;SDS011;14927;51.210;6.838;2023-04-06T00:37:08;14.93;;;8.25;;
27491;SDS011;14927;51.210;6.838;2023-04-06T00:39:54;13.88;;;8.18;;
27491;SDS011;14927;51.210;6.838;2023-04-06T00:42:39;14.23;;;8.45;;
27491;SDS011;14927;51.210;6.838;2023-04-06T00:45:25;13.55;;;8.18;;
27491;SDS011;14927;51.210;6.838;2023-04-06T00:48:10;14.35;;;8.52;;
27491;SDS011;14927;51.210;6.838;2023-04-06T00:50:55;13.35;;;7.90;;
27491;SDS011;14927;51.210;6.838;2023-04-06T00:53:40;12.38;;;7.95;;
27491;SDS011;14927;51.210;6.838;2023-04-06T00:56:24;13.82;;;7.97;;
27491;SDS011;14927;51.210;6.838;2023-04-06T00:59:10;14.50;;;7.97;;
27491;SDS011;14927;51.210;6.838;2023-04-06T01:01:55;15.65;;;8.85;;
27491;SDS011;14927;51.210;6.838;2023-04-06T01:04:40;11.73;;;8.10;;
27491;SDS011;14927;51.210;6.838;2023-04-06T01:07:24;14.48;;;8.25;;
27491;SDS011;14927;51.210;6.838;2023-04-06T01:10:09;14.60;;;8.90;;
27491;SDS011;14927;51.210;6.838;2023-04-06T01:12:54;15.82;;;8.68;;
27491;SDS011;14927;51.210;6.838;2023-04-06T01:15:39;15.13;;;8.52;;
27491;SDS011;14927;51.210;6.838;2023-04-06T01:18:26;12.15;;;7.85;;
27491;SDS011;14927;51.210;6.838;2023-04-06T01:21:12;12.75;;;8.27;;
27491;SDS011;14927;51.210;6.838;2023-04-06T01:23:59;14.85;;;9.05;;
27491;SDS011;14927;51.210;6.838;2023-04-06T01:26:44;16.52;;;9.02;;
27491;SDS011;14927;51.210;6.838;2023-04-06T01:29:29;16.08;;;8.73;;
27491;SDS011;14927;51.210;6.838;2023-04-06T01:32:13;12.75;;;8.77;;
27491;SDS011;14927;51.210;6.838;2023-04-06T01:34:59;16.80;;;9.48;;
27491;SDS011;14927;51.210;6.838;2023-04-06T01:37:43;14.02;;;8.90;;
27491;SDS011;14927;51.210;6.838;2023-04-06T01:40:29;16.52;;;9.73;;
27491;SDS011;14927;51.210;6.838;2023-04-06T01:43:14;14.00;;;9.00;;
27491;SDS011;14927;51.210;6.838;2023-04-06T01:45:59;14.93;;;9.40;;
27491;SDS011;14927;51.210;6.838;2023-04-06T01:48:44;16.08;;;9.50;;
27491;SDS011;14927;51.210;6.838;2023-04-06T01:51:29;14.18;;;9.05;;
27491;SDS011;14927;51.210;6.838;2023-04-06T01:54:14;14.40;;;9.07;;
27491;SDS011;14927;51.210;6.838;2023-04-06T01:56:59;16.20;;;9.57;;
27491;SDS011;14927;51.210;6.838;2023-04-06T01:59:44;14.77;;;9.60;;
27491;SDS011;14927;51.210;6.838;2023-04-06T02:02:29;16.55;;;9.95;;
27491;SDS011;14927;51.210;6.838;2023-04-06T02:05:13;17.20;;;9.57;;
27491;SDS011;14927;51.210;6.838;2023-04-06T02:07:58;15.30;;;9.20;;
27491;SDS011;14927;51.210;6.838;2023-04-06T02:10:43;15.32;;;9.70;;
27491;SDS011;14927;51.210;6.838;2023-04-06T02:13:28;14.60;;;9.20;;
27491;SDS011;14927;51.210;6.838;2023-04-06T02:16:13;12.68;;;9.20;;
27491;SDS011;14927;51.210;6.838;2023-04-06T02:18:58;15.90;;;9.43;;
27491;SDS011;14927;51.210;6.838;2023-04-06T02:21:43;16.67;;;9.82;;
27491;SDS011;14927;51.210;6.838;2023-04-06T02:24:28;16.52;;;10.20;;
27491;SDS011;14927;51.210;6.838;2023-04-06T02:27:14;17.38;;;9.85;;
27491;SDS011;14927;51.210;6.838;2023-04-06T02:29:59;14.35;;;9.20;;
27491;SDS011;14927;51.210;6.838;2023-04-06T02:32:44;12.13;;;8.38;;
27491;SDS011;14927;51.210;6.838;2023-04-06T02:35:29;13.80;;;9.50;;
27491;SDS011;14927;51.210;6.838;2023-04-06T02:38:14;16.33;;;9.60;;
27491;SDS011;14927;51.210;6.838;2023-04-06T02:40:59;12.95;;;9.48;;
27491;SDS011;14927;51.210;6.838;2023-04-06T02:43:44;15.65;;;9.13;;
27491;SDS011;14927;51.210;6.838;2023-04-06T02:46:28;15.00;;;8.82;;
27491;SDS011;14927;51.210;6.838;2023-04-06T02:49:13;15.77;;;9.25;;
27491;SDS011;14927;51.210;6.838;2023-04-06T02:51:57;17.10;;;10.32;;
27491;SDS011;14927;51.210;6.838;2023-04-06T02:54:42;15.35;;;8.95;;
27491;SDS011;14927;51.210;6.838;2023-04-06T02:57:26;18.60;;;9.85;;
27491;SDS011;14927;51.210;6.838;2023-04-06T03:00:11;15.50;;;9.23;;
27491;SDS011;14927;51.210;6.838;2023-04-06T03:02:56;17.65;;;9.63;;
27491;SDS011;14927;51.210;6.838;2023-04-06T03:05:42;14.98;;;9.15;;
27491;SDS011;14927;51.210;6.838;2023-04-06T03:08:26;20.60;;;10.48;;
27491;SDS011;14927;51.210;6.838;2023-04-06T03:11:11;15.88;;;9.75;;
27491;SDS011;14927;51.210;6.838;2023-04-06T03:13:56;16.92;;;9.73;;
27491;SDS011;14927;51.210;6.838;2023-04-06T03:16:41;18.33;;;10.02;;
27491;SDS011;14927;51.210;6.838;2023-04-06T03:19:25;20.40;;;10.48;;
27491;SDS011;14927;51.210;6.838;2023-04-06T03:22:10;14.95;;;10.05;;
27491;SDS011;14927;51.210;6.838;2023-04-06T03:24:54;17.67;;;10.43;;
27491;SDS011;14927;51.210;6.838;2023-04-06T03:27:39;19.17;;;10.75;;
27491;SDS011;14927;51.210;6.838;2023-04-06T03:30:24;16.33;;;9.63;;
27491;SDS011;14927;51.210;6.838;2023-04-06T03:33:10;16.10;;;9.65;;
27491;SDS011;14927;51.210;6.838;2023-04-06T03:35:55;16.55;;;9.68;;
27491;SDS011;14927;51.210;6.838;2023-04-06T03:38:39;13.57;;;9.65;;
27491;SDS011;14927;51.210;6.838;2023-04-06T03:41:24;20.38;;;10.65;;
27491;SDS011;14927;51.210;6.838;2023-04-06T03:44:09;17.58;;;10.20;;
27491;SDS011;14927;51.210;6.838;2023-04-06T03:46:53;24.92;;;10.10;;
27491;SDS011;14927;51.210;6.838;2023-04-06T03:49:38;20.02;;;10.43;;
27491;SDS011;14927;51.210;6.838;2023-04-06T03:52:23;14.95;;;10.10;;
27491;SDS011;14927;51.210;6.838;2023-04-06T03:55:08;17.77;;;9.82;;
27491;SDS011;14927;51.210;6.838;2023-04-06T03:57:53;16.38;;;9.82;;
27491;SDS011;14927;51.210;6.838;2023-04-06T04:00:37;18.58;;;9.68;;
27491;SDS011;14927;51.210;6.838;2023-04-06T04:03:23;17.13;;;10.13;;
27491;SDS011;14927;51.210;6.838;2023-04-06T04:06:11;19.38;;;10.75;;
27491;SDS011;14927;51.210;6.838;2023-04-06T04:08:59;18.83;;;11.02;;
27491;SDS011;14927;51.210;6.838;2023-04-06T04:11:44;18.95;;;11.32;;
27491;SDS011;14927;51.210;6.838;2023-04-06T04:14:29;16.10;;;9.57;;
27491;SDS011;14927;51.210;6.838;2023-04-06T04:17:14;16.13;;;10.38;;
27491;SDS011;14927;51.210;6.838;2023-04-06T04:20:01;17.52;;;9.70;;
27491;SDS011;14927;51.210;6.838;2023-04-06T04:22:46;14.65;;;9.50;;
27491;SDS011;14927;51.210;6.838;2023-04-06T04:25:31;17.00;;;9.82;;
27491;SDS011;14927;51.210;6.838;2023-04-06T04:28:16;14.73;;;9.20;;
27491;SDS011;14927;51.210;6.838;2023-04-06T04:31:02;17.45;;;9.65;;
27491;SDS011;14927;51.210;6.838;2023-04-06T04:33:47;16.55;;;9.02;;
27491;SDS011;14927;51.210;6.838;2023-04-06T04:36:37;12.88;;;9.40;;
27491;SDS011;14927;51.210;6.838;2023-04-06T04:39:24;18.58;;;9.27;;
27491;SDS011;14927;51.210;6.838;2023-04-06T04:42:09;15.82;;;8.02;;
27491;SDS011;14927;51.210;6.838;2023-04-06T04:44:54;14.15;;;9.40;;
27491;SDS011;14927;51.210;6.838;2023-04-06T04:47:40;21.33;;;9.57;;
27491;SDS011;14927;51.210;6.838;2023-04-06T04:50:26;17.63;;;9.52;;
27491;SDS011;14927;51.210;6.838;2023-04-06T04:53:12;16.33;;;9.02;;
27491;SDS011;14927;51.210;6.838;2023-04-06T04:55:57;18.50;;;8.63;;
27491;SDS011;14927;51.210;6.838;2023-04-06T04:58:44;16.60;;;9.15;;
27491;SDS011;14927;51.210;6.838;2023-04-06T05:01:30;27.15;;;8.90;;
27491;SDS011;14927;51.210;6.838;2023-04-06T05:04:15;17.00;;;8.77;;
27491;SDS011;14927;51.210;6.838;2023-04-06T05:07:03;18.50;;;9.93;;
27491;SDS011;14927;51.210;6.838;2023-04-06T05:09:50;15.77;;;8.60;;
27491;SDS011;14927;51.210;6.838;2023-04-06T05:12:35;13.15;;;9.00;;
27491;SDS011;14927;51.210;6.838;2023-04-06T05:15:19;18.33;;;8.75;;
27491;SDS011;14927;51.210;6.838;2023-04-06T05:18:04;22.48;;;9.43;;
27491;SDS011;14927;51.210;6.838;2023-04-06T05:20:49;47.72;;;10.07;;
27491;SDS011;14927;51.210;6.838;2023-04-06T05:23:35;30.55;;;9.43;;
27491;SDS011;14927;51.210;6.838;2023-04-06T05:26:19;13.43;;;8.30;;
27491;SDS011;14927;51.210;6.838;2023-04-06T05:29:04;12.27;;;7.88;;
27491;SDS011;14927;51.210;6.838;2023-04-06T05:31:50;16.73;;;8.70;;
27491;SDS011;14927;51.210;6.838;2023-04-06T05:34:35;18.48;;;7.75;;
27491;SDS011;14927;51.210;6.838;2023-04-06T05:37:21;17.35;;;9.27;;
27491;SDS011;14927;51.210;6.838;2023-04-06T05:40:06;14.00;;;8.40;;
27491;SDS011;14927;51.210;6.838;2023-04-06T05:42:52;18.15;;;8.65;;
27491;SDS011;14927;51.210;6.838;2023-04-06T05:45:40;17.13;;;8.80;;
27491;SDS011;14927;51.210;6.838;2023-04-06T05:48:24;20.05;;;9.02;;
27491;SDS011;14927;51.210;6.838;2023-04-06T05:51:09;13.70;;;7.97;;
27491;SDS011;14927;51.210;6.838;2023-04-06T05:53:54;16.88;;;8.65;;
27491;SDS011;14927;51.210;6.838;2023-04-06T05:56:39;16.70;;;8.05;;
27491;SDS011;14927;51.210;6.838;2023-04-06T05:59:24;14.68;;;8.50;;
27491;SDS011;14927;51.210;6.838;2023-04-06T06:02:09;16.77;;;8.63;;
27491;SDS011;14927;51.210;6.838;2023-04-06T06:04:54;25.45;;;9.02;;
27491;SDS011;14927;51.210;6.838;2023-04-06T06:07:39;14.48;;;8.20;;
27491;SDS011;14927;51.210;6.838;2023-04-06T06:10:24;14.00;;;7.88;;
27491;SDS011;14927;51.210;6.838;2023-04-06T06:13:09;13.30;;;7.72;;
27491;SDS011;14927;51.210;6.838;2023-04-06T06:15:53;12.85;;;7.68;;
27491;SDS011;14927;51.210;6.838;2023-04-06T06:18:38;11.52;;;7.32;;
27491;SDS011;14927;51.210;6.838;2023-04-06T06:21:23;14.75;;;7.82;;
27491;SDS011;14927;51.210;6.838;2023-04-06T06:24:08;19.15;;;7.93;;
27491;SDS011;14927;51.210;6.838;2023-04-06T06:26:53;11.00;;;7.55;;
27491;SDS011;14927;51.210;6.838;2023-04-06T06:29:38;17.15;;;8.25;;
27491;SDS011;14927;51.210;6.838;2023-04-06T06:32:23;15.60;;;7.72;;
27491;SDS011;14927;51.210;6.838;2023-04-06T06:35:08;13.20;;;7.15;;
27491;SDS011;14927;51.210;6.838;2023-04-06T06:37:53;15.30;;;8.25;;
27491;SDS011;14927;51.210;6.838;2023-04-06T06:40:38;12.27;;;7.90;;
27491;SDS011;14927;51.210;6.838;2023-04-06T06:43:24;15.35;;;7.55;;
27491;SDS011;14927;51.210;6.838;2023-04-06T06:46:09;12.73;;;7.10;;
27491;SDS011;14927;51.210;6.838;2023-04-06T06:48:53;16.65;;;7.60;;
27491;SDS011;14927;51.210;6.838;2023-04-06T06:51:38;11.45;;;7.57;;
27491;SDS011;14927;51.210;6.838;2023-04-06T06:54:23;16.42;;;8.10;;
27491;SDS011;14927;51.210;6.838;2023-04-06T06:57:08;13.73;;;7.15;;
27491;SDS011;14927;51.210;6.838;2023-04-06T06:59:53;15.85;;;6.95;;
27491;SDS011;14927;51.210;6.838;2023-04-06T07:02:38;12.98;;;7.70;;
27491;SDS011;14927;51.210;6.838;2023-04-06T07:05:23;11.88;;;7.07;;
27491;SDS011;14927;51.210;6.838;2023-04-06T07:08:08;14.45;;;8.10;;
27491;SDS011;14927;51.210;6.838;2023-04-06T07:10:53;20.15;;;7.78;;
27491;SDS011;14927;51.210;6.838;2023-04-06T07:13:39;12.60;;;7.28;;
27491;SDS011;14927;51.210;6.838;2023-04-06T07:16:25;11.25;;;7.00;;
27491;SDS011;14927;51.210;6.838;2023-04-06T07:19:09;12.63;;;7.28;;
27491;SDS011;14927;51.210;6.838;2023-04-06T07:21:55;11.95;;;7.15;;
27491;SDS011;14927;51.210;6.838;2023-04-06T07:24:40;14.90;;;7.57;;
27491;SDS011;14927;51.210;6.838;2023-04-06T07:27:25;16.23;;;7.75;;
27491;SDS011;14927;51.210;6.838;2023-04-06T07:30:10;14.00;;;7.95;;
27491;SDS011;14927;51.210;6.838;2023-04-06T07:32:55;12.38;;;7.40;;
27491;SDS011;14927;51.210;6.838;2023-04-06T07:35:40;10.38;;;6.97;;
27491;SDS011;14927;51.210;6.838;2023-04-06T07:38:25;14.85;;;7.32;;
27491;SDS011;14927;51.210;6.838;2023-04-06T07:41:10;11.98;;;7.15;;
27491;SDS011;14927;51.210;6.838;2023-04-06T07:43:55;18.27;;;8.40;;
27491;SDS011;14927;51.210;6.838;2023-04-06T07:46:40;14.48;;;8.07;;
27491;SDS011;14927;51.210;6.838;2023-04-06T07:49:25;16.33;;;7.43;;
27491;SDS011;14927;51.210;6.838;2023-04-06T07:52:10;13.43;;;7.30;;
27491;SDS011;14927;51.210;6.838;2023-04-06T07:54:54;12.40;;;7.47;;
27491;SDS011;14927;51.210;6.838;2023-04-06T07:57:39;13.00;;;7.45;;
27491;SDS011;14927;51.210;6.838;2023-04-06T08:00:24;13.55;;;7.32;;
27491;SDS011;14927;51.210;6.838;2023-04-06T08:03:09;12.70;;;7.05;;
27491;SDS011;14927;51.210;6.838;2023-04-06T08:05:54;13.63;;;7.93;;
27491;SDS011;14927;51.210;6.838;2023-04-06T08:08:38;15.63;;;7.82;;
27491;SDS011;14927;51.210;6.838;2023-04-06T08:11:23;18.20;;;8.60;;
27491;SDS011;14927;51.210;6.838;2023-04-06T08:14:08;12.25;;;7.55;;
27491;SDS011;14927;51.210;6.838;2023-04-06T08:16:52;11.45;;;7.88;;
27491;SDS011;14927;51.210;6.838;2023-04-06T08:19:37;12.25;;;7.60;;
27491;SDS011;14927;51.210;6.838;2023-04-06T08:22:22;11.07;;;7.35;;
27491;SDS011;14927;51.210;6.838;2023-04-06T08:25:07;9.95;;;6.90;;
27491;SDS011;14927;51.210;6.838;2023-04-06T08:27:52;13.05;;;7.82;;
27491;SDS011;14927;51.210;6.838;2023-04-06T08:30:37;11.20;;;7.90;;
27491;SDS011;14927;51.210;6.838;2023-04-06T08:33:28;18.75;;;8.40;;
27491;SDS011;14927;51.210;6.838;2023-04-06T08:36:13;13.60;;;8.70;;
27491;SDS011;14927;51.210;6.838;2023-04-06T08:39:00;12.00;;;8.10;;
27491;SDS011;14927;51.210;6.838;2023-04-06T08:41:44;15.88;;;8.60;;
27491;SDS011;14927;51.210;6.838;2023-04-06T08:44:30;14.77;;;9.40;;
27491;SDS011;14927;51.210;6.838;2023-04-06T08:47:16;15.23;;;8.40;;
27491;SDS011;14927;51.210;6.838;2023-04-06T08:50:02;15.02;;;9.02;;
27491;SDS011;14927;51.210;6.838;2023-04-06T08:52:48;15.80;;;9.15;;
27491;SDS011;14927;51.210;6.838;2023-04-06T08:55:33;17.10;;;9.48;;
27491;SDS011;14927;51.210;6.838;2023-04-06T08:58:18;18.17;;;10.00;;
27491;SDS011;14927;51.210;6.838;2023-04-06T09:01:06;19.23;;;11.65;;
27491;SDS011;14927;51.210;6.838;2023-04-06T09:03:57;16.77;;;10.65;;
27491;SDS011;14927;51.210;6.838;2023-04-06T09:06:48;19.55;;;11.27;;
27491;SDS011;14927;51.210;6.838;2023-04-06T09:09:33;20.65;;;10.68;;
27491;SDS011;14927;51.210;6.838;2023-04-06T09:12:22;19.40;;;10.27;;
27491;SDS011;14927;51.210;6.838;2023-04-06T09:15:18;20.02;;;10.32;;
27491;SDS011;14927;51.210;6.838;2023-04-06T09:18:04;16.55;;;10.70;;
27491;SDS011;14927;51.210;6.838;2023-04-06T09:20:59;16.02;;;10.68;;
27491;SDS011;14927;51.210;6.838;2023-04-06T09:24:00;18.48;;;10.40;;
27491;SDS011;14927;51.210;6.838;2023-04-06T09:26:48;22.58;;;11.63;;
27491;SDS011;14927;51.210;6.838;2023-04-06T09:29:33;20.83;;;10.63;;
27491;SDS011;14927;51.210;6.838;2023-04-06T09:32:20;19.17;;;11.23;;
27491;SDS011;14927;51.210;6.838;2023-04-06T09:35:13;16.38;;;10.75;;
27491;SDS011;14927;51.210;6.838;2023-04-06T09:38:10;18.15;;;11.18;;
27491;SDS011;14927;51.210;6.838;2023-04-06T09:40:56;22.48;;;11.68;;
27491;SDS011;14927;51.210;6.838;2023-04-06T09:43:40;24.23;;;11.57;;
27491;SDS011;14927;51.210;6.838;2023-04-06T09:46:25;19.85;;;12.23;;
27491;SDS011;14927;51.210;6.838;2023-04-06T09:49:13;19.65;;;11.98;;
27491;SDS011;14927;51.210;6.838;2023-04-06T09:52:03;22.30;;;12.50;;
27491;SDS011;14927;51.210;6.838;2023-04-06T09:54:50;19.48;;;12.30;;
27491;SDS011;14927;51.210;6.838;2023-04-06T09:57:41;19.70;;;12.00;;
27491;SDS011;14927;51.210;6.838;2023-04-06T10:01:07;20.77;;;12.32;;
27491;SDS011;14927;51.210;6.838;2023-04-06T10:04:21;21.30;;;12.30;;
27491;SDS011;14927;51.210;6.838;2023-04-06T10:07:31;19.30;;;12.10;;
27491;SDS011;14927;51.210;6.838;2023-04-06T10:10:17;23.15;;;12.82;;
27491;SDS011;14927;51.210;6.838;2023-04-06T10:13:02;20.52;;;12.40;;
27491;SDS011;14927;51.210;6.838;2023-04-06T10:15:49;23.13;;;13.00;;
27491;SDS011;14927;51.210;6.838;2023-04-06T10:18:35;21.77;;;12.45;;
27491;SDS011;14927;51.210;6.838;2023-04-06T10:21:23;23.20;;;13.80;;
27491;SDS011;14927;51.210;6.838;2023-04-06T10:24:12;23.35;;;13.25;;
27491;SDS011;14927;51.210;6.838;2023-04-06T10:26:57;24.02;;;12.98;;
27491;SDS011;14927;51.210;6.838;2023-04-06T10:29:45;20.05;;;12.13;;
27491;SDS011;14927;51.210;6.838;2023-04-06T10:32:35;23.92;;;14.00;;
27491;SDS011;14927;51.210;6.838;2023-04-06T10:35:21;24.60;;;12.85;;
27491;SDS011;14927;51.210;6.838;2023-04-06T10:38:07;19.77;;;12.15;;
27491;SDS011;14927;51.210;6.838;2023-04-06T10:40:52;21.85;;;12.68;;
27491;SDS011;14927;51.210;6.838;2023-04-06T10:43:54;20.50;;;12.02;;
27491;SDS011;14927;51.210;6.838;2023-04-06T10:46:40;21.63;;;12.80;;
27491;SDS011;14927;51.210;6.838;2023-04-06T10:49:40;19.45;;;12.50;;
27491;SDS011;14927;51.210;6.838;2023-04-06T10:52:25;23.02;;;13.32;;
27491;SDS011;14927;51.210;6.838;2023-04-06T10:55:09;23.17;;;12.77;;
27491;SDS011;14927;51.210;6.838;2023-04-06T10:57:56;21.25;;;12.70;;
27491;SDS011;14927;51.210;6.838;2023-04-06T11:00:47;19.95;;;12.88;;
27491;SDS011;14927;51.210;6.838;2023-04-06T11:03:42;20.35;;;12.73;;
27491;SDS011;14927;51.210;6.838;2023-04-06T11:06:38;18.40;;;11.30;;
27491;SDS011;14927;51.210;6.838;2023-04-06T11:09:23;20.05;;;12.55;;
27491;SDS011;14927;51.210;6.838;2023-04-06T11:12:26;19.70;;;12.00;;
27491;SDS011;14927;51.210;6.838;2023-04-06T11:15:13;23.47;;;13.60;;
27491;SDS011;14927;51.210;6.838;2023-04-06T11:17:57;20.27;;;12.95;;
27491;SDS011;14927;51.210;6.838;2023-04-06T11:20:46;20.67;;;12.73;;
27491;SDS011;14927;51.210;6.838;2023-04-06T11:23:32;19.75;;;12.50;;
27491;SDS011;14927;51.210;6.838;2023-04-06T11:26:17;21.83;;;13.07;;
27491;SDS011;14927;51.210;6.838;2023-04-06T11:29:02;22.08;;;13.23;;
27491;SDS011;14927;51.210;6.838;2023-04-06T11:31:51;21.85;;;13.73;;
27491;SDS011;14927;51.210;6.838;2023-04-06T11:34:38;25.30;;;13.73;;
27491;SDS011;14927;51.210;6.838;2023-04-06T11:37:25;23.40;;;13.43;;
27491;SDS011;14927;51.210;6.838;2023-04-06T11:40:12;23.27;;;12.73;;
27491;SDS011;14927;51.210;6.838;2023-04-06T11:42:56;21.70;;;11.93;;
27491;SDS011;14927;51.210;6.838;2023-04-06T11:45:43;21.33;;;13.15;;
27491;SDS011;14927;51.210;6.838;2023-04-06T11:48:29;18.42;;;12.15;;
27491;SDS011;14927;51.210;6.838;2023-04-06T11:51:22;20.08;;;11.80;;
27491;SDS011;14927;51.210;6.838;2023-04-06T11:54:11;19.45;;;11.85;;
27491;SDS011;14927;51.210;6.838;2023-04-06T11:56:56;21.33;;;11.73;;
27491;SDS011;14927;51.210;6.838;2023-04-06T11:59:41;18.02;;;12.07;;
27491;SDS011;14927;51.210;6.838;2023-04-06T12:02:28;19.58;;;11.25;;
27491;SDS011;14927;51.210;6.838;2023-04-06T12:05:14;20.52;;;12.00;;
27491;SDS011;14927;51.210;6.838;2023-04-06T12:08:01;23.52;;;12.27;;
27491;SDS011;14927;51.210;6.838;2023-04-06T12:10:50;19.40;;;13.00;;
27491;SDS011;14927;51.210;6.838;2023-04-06T12:13:35;22.85;;;12.05;;
27491;SDS011;14927;51.210;6.838;2023-04-06T12:16:19;23.88;;;12.57;;
27491;SDS011;14927;51.210;6.838;2023-04-06T12:19:04;21.30;;;12.40;;
27491;SDS011;14927;51.210;6.838;2023-04-06T12:21:49;19.55;;;11.48;;
27491;SDS011;14927;51.210;6.838;2023-04-06T12:24:34;18.48;;;11.60;;
27491;SDS011;14927;51.210;6.838;2023-04-06T12:27:19;14.50;;;10.43;;
27491;SDS011;14927;51.210;6.838;2023-04-06T12:30:04;18.63;;;10.77;;
27491;SDS011;14927;51.210;6.838;2023-04-06T12:32:50;17.02;;;10.77;;
27491;SDS011;14927;51.210;6.838;2023-04-06T12:35:34;17.50;;;10.55;;
27491;SDS011;14927;51.210;6.838;2023-04-06T12:38:20;18.30;;;10.80;;
27491;SDS011;14927;51.210;6.838;2023-04-06T12:41:06;20.50;;;11.20;;
27491;SDS011;14927;51.210;6.838;2023-04-06T12:43:50;16.40;;;10.20;;
27491;SDS011;14927;51.210;6.838;2023-04-06T12:46:35;13.48;;;9.13;;
27491;SDS011;14927;51.210;6.838;2023-04-06T12:49:20;19.27;;;10.00;;
27491;SDS011;14927;51.210;6.838;2023-04-06T12:52:05;14.60;;;10.02;;
27491;SDS011;14927;51.210;6.838;2023-04-06T12:54:50;20.30;;;10.43;;
27491;SDS011;14927;51.210;6.838;2023-04-06T12:57:37;16.55;;;9.55;;
27491;SDS011;14927;51.210;6.838;2023-04-06T13:00:24;15.45;;;9.52;;
27491;SDS011;14927;51.210;6.838;2023-04-06T13:03:09;18.73;;;9.68;;
27491;SDS011;14927;51.210;6.838;2023-04-06T13:05:54;15.82;;;9.45;;
27491;SDS011;14927;51.210;6.838;2023-04-06T13:08:39;15.32;;;8.90;;
27491;SDS011;14927;51.210;6.838;2023-04-06T13:11:25;14.77;;;8.82;;
27491;SDS011;14927;51.210;6.838;2023-04-06T13:14:10;19.00;;;9.77;;
27491;SDS011;14927;51.210;6.838;2023-04-06T13:16:55;16.25;;;8.85;;
27491;SDS011;14927;51.210;6.838;2023-04-06T13:19:39;14.90;;;8.75;;
27491;SDS011;14927;51.210;6.838;2023-04-06T13:22:27;10.63;;;7.13;;
27491;SDS011;14927;51.210;6.838;2023-04-06T13:25:15;11.88;;;7.25;;
27491;SDS011;14927;51.210;6.838;2023-04-06T13:28:04;11.05;;;6.53;;
27491;SDS011;14927;51.210;6.838;2023-04-06T13:30:52;9.13;;;6.47;;
27491;SDS011;14927;51.210;6.838;2023-04-06T13:33:38;13.32;;;6.97;;
27491;SDS011;14927;51.210;6.838;2023-04-06T13:36:24;8.23;;;6.13;;
27491;SDS011;14927;51.210;6.838;2023-04-06T13:39:10;11.00;;;6.88;;
27491;SDS011;14927;51.210;6.838;2023-04-06T13:42:18;11.80;;;6.60;;
27491;SDS011;14927;51.210;6.838;2023-04-06T13:45:03;9.50;;;6.30;;
27491;SDS011;14927;51.210;6.838;2023-04-06T13:47:51;11.23;;;6.00;;
27491;SDS011;14927;51.210;6.838;2023-04-06T13:50:36;8.93;;;6.43;;
27491;SDS011;14927;51.210;6.838;2023-04-06T13:53:21;9.52;;;6.70;;
27491;SDS011;14927;51.210;6.838;2023-04-06T13:56:07;9.15;;;6.53;;
27491;SDS011;14927;51.210;6.838;2023-04-06T13:58:54;9.60;;;6.32;;
27491;SDS011;14927;51.210;6.838;2023-04-06T14:01:43;10.27;;;6.70;;
27491;SDS011;14927;51.210;6.838;2023-04-06T14:04:27;9.38;;;5.82;;
27491;SDS011;14927;51.210;6.838;2023-04-06T14:20:35;11.07;;;6.28;;
27491;SDS011;14927;51.210;6.838;2023-04-06T14:23:21;9.57;;;6.35;;
27491;SDS011;14927;51.210;6.838;2023-04-06T14:26:07;10.70;;;5.28;;
27491;SDS011;14927;51.210;6.838;2023-04-06T14:28:53;7.78;;;4.65;;
27491;SDS011;14927;51.210;6.838;2023-04-06T14:34:21;6.22;;;4.95;;
27491;SDS011;14927;51.210;6.838;2023-04-06T14:37:07;9.18;;;5.75;;
27491;SDS011;14927;51.210;6.838;2023-04-06T14:39:55;7.57;;;5.50;;
27491;SDS011;14927;51.210;6.838;2023-04-06T14:42:55;8.70;;;6.07;;
27491;SDS011;14927;51.210;6.838;2023-04-06T14:45:42;8.18;;;5.43;;
27491;SDS011;14927;51.210;6.838;2023-04-06T14:48:27;8.88;;;5.93;;
27491;SDS011;14927;51.210;6.838;2023-04-06T14:51:12;8.60;;;6.10;;
27491;SDS011;14927;51.210;6.838;2023-04-06T14:53:58;8.73;;;6.00;;
27491;SDS011;14927;51.210;6.838;2023-04-06T14:56:49;8.65;;;6.55;;
27491;SDS011;14927;51.210;6.838;2023-04-06T14:59:34;12.55;;;6.55;;
27491;SDS011;14927;51.210;6.838;2023-04-06T15:02:18;9.70;;;6.82;;
27491;SDS011;14927;51.210;6.838;2023-04-06T15:05:04;9.48;;;6.72;;
27491;SDS011;14927;51.210;6.838;2023-04-06T15:07:50;11.35;;;6.32;;
27491;SDS011;14927;51.210;6.838;2023-04-06T15:10:34;9.65;;;6.32;;
27491;SDS011;14927;51.210;6.838;2023-04-06T15:13:19;10.20;;;5.45;;
27491;SDS011;14927;51.210;6.838;2023-04-06T15:16:04;6.15;;;4.88;;
27491;SDS011;14927;51.210;6.838;2023-04-06T15:18:50;8.48;;;4.70;;
27491;SDS011;14927;51.210;6.838;2023-04-06T15:21:37;8.13;;;5.05;;
27491;SDS011;14927;51.210;6.838;2023-04-06T15:24:24;6.95;;;4.47;;
27491;SDS011;14927;51.210;6.838;2023-04-06T15:27:10;7.55;;;5.20;;
27491;SDS011;14927;51.210;6.838;2023-04-06T15:29:56;8.27;;;5.57;;
27491;SDS011;14927;51.210;6.838;2023-04-06T15:32:56;9.07;;;5.75;;
27491;SDS011;14927;51.210;6.838;2023-04-06T15:35:47;7.75;;;5.18;;
27491;SDS011;14927;51.210;6.838;2023-04-06T15:38:32;9.23;;;5.80;;
27491;SDS011;14927;51.210;6.838;2023-04-06T15:41:18;8.02;;;5.35;;
27491;SDS011;14927;51.210;6.838;2023-04-06T15:44:06;10.15;;;5.95;;
27491;SDS011;14927;51.210;6.838;2023-04-06T15:46:51;9.38;;;5.95;;
27491;SDS011;14927;51.210;6.838;2023-04-06T15:49:36;8.60;;;5.95;;
27491;SDS011;14927;51.210;6.838;2023-04-06T15:52:21;9.10;;;5.88;;
27491;SDS011;14927;51.210;6.838;2023-04-06T15:55:07;8.88;;;5.57;;
27491;SDS011;14927;51.210;6.838;2023-04-06T15:57:52;9.13;;;5.60;;
27491;SDS011;14927;51.210;6.838;2023-04-06T16:00:36;6.43;;;5.15;;
27491;SDS011;14927;51.210;6.838;2023-04-06T16:03:21;13.90;;;6.55;;
27491;SDS011;14927;51.210;6.838;2023-04-06T16:06:07;8.77;;;5.28;;
27491;SDS011;14927;51.210;6.838;2023-04-06T16:08:52;9.85;;;5.88;;
27491;SDS011;14927;51.210;6.838;2023-04-06T16:11:37;12.55;;;5.85;;
27491;SDS011;14927;51.210;6.838;2023-04-06T16:14:22;9.93;;;5.90;;
27491;SDS011;14927;51.210;6.838;2023-04-06T16:17:06;11.60;;;6.20;;
27491;SDS011;14927;51.210;6.838;2023-04-06T16:19:51;8.13;;;6.03;;
27491;SDS011;14927;51.210;6.838;2023-04-06T16:22:36;9.32;;;5.97;;
27491;SDS011;14927;51.210;6.838;2023-04-06T16:25:21;11.35;;;7.28;;
27491;SDS011;14927;51.210;6.838;2023-04-06T16:28:05;9.38;;;6.88;;
27491;SDS011;14927;51.210;6.838;2023-04-06T16:30:50;11.98;;;7.68;;
27491;SDS011;14927;51.210;6.838;2023-04-06T16:33:36;11.93;;;6.95;;
27491;SDS011;14927;51.210;6.838;2023-04-06T16:36:24;11.52;;;7.78;;
27491;SDS011;14927;51.210;6.838;2023-04-06T16:39:11;12.15;;;7.18;;
27491;SDS011;14927;51.210;6.838;2023-04-06T16:41:56;9.90;;;6.72;;